sensor_id;sensor_type;location;lat;lon;timestamp;pressure;altitude;pressure_sealevel;temperature;humidity
46724;BME280;32463;48.298;11.620;2023-02-14T00:02:06;98198.50;;;-0.65;100.00
46724;BME280;32463;48.298;11.620;2023-02-14T00:04:33;98185.78;;;-0.67;100.00
46724;BME280;32463;48.298;11.620;2023-02-14T00:07:03;98188.06;;;-0.87;100.00
46724;BME280;32463;48.298;11.620;2023-02-14T00:09:33;98188.97;;;-0.90;100.00
46724;BME280;32463;48.298;11.620;2023-02-14T00:12:00;98185.59;;;-0.90;100.00
46724;BME280;32463;48.298;11.620;2023-02-14T00:14:28;98190.50;;;-0.84;100.00
46724;BME280;32463;48.298;11.620;2023-02-14T00:17:12;98178.63;;;-0.84;100.00
46724;BME280;32463;48.298;11.620;2023-02-14T00:19:38;98187.06;;;-0.82;100.00
46724;BME280;32463;48.298;11.620;2023-02-14T00:22:05;98180.28;;;-0.83;100.00
46724;BME280;32463;48.298;11.620;2023-02-14T00:24:32;98182.53;;;-0.72;100.00
46724;BME280;32463;48.298;11.620;2023-02-14T00:26:59;98185.97;;;-0.73;100.00
46724;BME280;32463;48.298;11.620;2023-02-14T00:29:30;98184.50;;;-0.82;100.00
46724;BME280;32463;48.298;11.620;2023-02-14T00:31:57;98186.31;;;-0.85;100.00
46724;BME280;32463;48.298;11.620;2023-02-14T00:34:23;98184.00;;;-0.93;100.00
46724;BME280;32463;48.298;11.620;2023-02-14T00:36:50;98189.75;;;-0.88;100.00
46724;BME280;32463;48.298;11.620;2023-02-14T00:39:18;98190.03;;;-0.97;100.00
46724;BME280;32463;48.298;11.620;2023-02-14T00:41:44;98188.69;;;-1.10;100.00
46724;BME280;32463;48.298;11.620;2023-02-14T00:44:11;98182.81;;;-1.12;100.00
46724;BME280;32463;48.298;11.620;2023-02-14T00:46:39;98182.97;;;-1.18;100.00
46724;BME280;32463;48.298;11.620;2023-02-14T00:49:06;98184.66;;;-1.17;100.00
46724;BME280;32463;48.298;11.620;2023-02-14T00:51:33;98191.47;;;-1.19;100.00
46724;BME280;32463;48.298;11.620;2023-02-14T00:53:59;98187.06;;;-1.13;100.00
46724;BME280;32463;48.298;11.620;2023-02-14T00:56:26;98189.53;;;-1.10;100.00
46724;BME280;32463;48.298;11.620;2023-02-14T00:58:52;98188.63;;;-1.07;100.00
46724;BME280;32463;48.298;11.620;2023-02-14T01:01:19;98187.59;;;-1.00;100.00
46724;BME280;32463;48.298;11.620;2023-02-14T01:03:45;98187.66;;;-1.03;100.00
46724;BME280;32463;48.298;11.620;2023-02-14T01:06:12;98190.31;;;-1.08;100.00
46724;BME280;32463;48.298;11.620;2023-02-14T01:08:39;98197.31;;;-1.16;100.00
46724;BME280;32463;48.298;11.620;2023-02-14T01:11:07;98211.03;;;-1.21;100.00
46724;BME280;32463;48.298;11.620;2023-02-14T01:13:34;98200.94;;;-1.23;100.00
46724;BME280;32463;48.298;11.620;2023-02-14T01:16:07;98209.19;;;-1.15;100.00
46724;BME280;32463;48.298;11.620;2023-02-14T01:18:35;98209.25;;;-1.18;100.00
46724;BME280;32463;48.298;11.620;2023-02-14T01:21:09;98198.31;;;-1.21;100.00
46724;BME280;32463;48.298;11.620;2023-02-14T01:23:36;98194.84;;;-1.19;100.00
46724;BME280;32463;48.298;11.620;2023-02-14T01:26:04;98200.66;;;-1.14;100.00
46724;BME280;32463;48.298;11.620;2023-02-14T01:28:31;98186.22;;;-1.13;100.00
46724;BME280;32463;48.298;11.620;2023-02-14T01:31:07;98183.47;;;-1.06;100.00
46724;BME280;32463;48.298;11.620;2023-02-14T01:33:34;98196.16;;;-1.04;100.00
46724;BME280;32463;48.298;11.620;2023-02-14T01:36:00;98191.16;;;-1.07;100.00
46724;BME280;32463;48.298;11.620;2023-02-14T01:38:27;98184.25;;;-1.02;100.00
46724;BME280;32463;48.298;11.620;2023-02-14T01:40:53;98194.50;;;-1.05;100.00
46724;BME280;32463;48.298;11.620;2023-02-14T01:43:20;98198.78;;;-1.07;100.00
46724;BME280;32463;48.298;11.620;2023-02-14T01:45:47;98203.16;;;-1.12;100.00
46724;BME280;32463;48.298;11.620;2023-02-14T01:48:17;98201.56;;;-1.16;100.00
46724;BME280;32463;48.298;11.620;2023-02-14T01:50:45;98201.56;;;-1.16;100.00
46724;BME280;32463;48.298;11.620;2023-02-14T01:53:22;98204.31;;;-1.22;100.00
46724;BME280;32463;48.298;11.620;2023-02-14T01:55:57;98201.78;;;-1.22;100.00
46724;BME280;32463;48.298;11.620;2023-02-14T01:58:28;98206.75;;;-1.19;100.00
46724;BME280;32463;48.298;11.620;2023-02-14T02:00:59;98205.78;;;-1.15;100.00
46724;BME280;32463;48.298;11.620;2023-02-14T02:03:53;98203.00;;;-1.06;100.00
46724;BME280;32463;48.298;11.620;2023-02-14T02:06:44;98195.94;;;-0.95;100.00
46724;BME280;32463;48.298;11.620;2023-02-14T02:09:21;98188.97;;;-0.90;100.00
46724;BME280;32463;48.298;11.620;2023-02-14T02:11:50;98183.78;;;-0.87;100.00
46724;BME280;32463;48.298;11.620;2023-02-14T02:14:19;98184.69;;;-0.88;100.00
46724;BME280;32463;48.298;11.620;2023-02-14T02:20:09;98194.91;;;-0.89;100.00
46724;BME280;32463;48.298;11.620;2023-02-14T02:25:33;98191.00;;;-1.01;100.00
46724;BME280;32463;48.298;11.620;2023-02-14T02:45:08;98174.47;;;-1.17;100.00
46724;BME280;32463;48.298;11.620;2023-02-14T02:47:38;98172.75;;;-1.17;100.00
46724;BME280;32463;48.298;11.620;2023-02-14T02:53:18;98164.03;;;-1.08;100.00
46724;BME280;32463;48.298;11.620;2023-02-14T02:58:44;98170.72;;;-1.04;100.00
46724;BME280;32463;48.298;11.620;2023-02-14T03:01:15;98166.34;;;-0.99;100.00
46724;BME280;32463;48.298;11.620;2023-02-14T03:03:46;98166.41;;;-1.02;100.00
46724;BME280;32463;48.298;11.620;2023-02-14T03:06:30;98164.03;;;-1.08;100.00
46724;BME280;32463;48.298;11.620;2023-02-14T03:08:57;98159.88;;;-1.11;100.00
46724;BME280;32463;48.298;11.620;2023-02-14T03:11:35;98159.03;;;-1.11;100.00
46724;BME280;32463;48.298;11.620;2023-02-14T03:14:18;98159.91;;;-1.12;100.00
46724;BME280;32463;48.298;11.620;2023-02-14T03:19:38;98162.63;;;-1.18;100.00
46724;BME280;32463;48.298;11.620;2023-02-14T03:25:16;98176.41;;;-1.25;100.00
46724;BME280;32463;48.298;11.620;2023-02-14T03:27:53;98172.28;;;-1.29;100.00
46724;BME280;32463;48.298;11.620;2023-02-14T03:30:33;98162.00;;;-1.26;100.00
46724;BME280;32463;48.298;11.620;2023-02-14T03:33:30;98157.78;;;-1.27;100.00
46724;BME280;32463;48.298;11.620;2023-02-14T03:36:12;98171.41;;;-1.28;100.00
46724;BME280;32463;48.298;11.620;2023-02-14T03:38:47;98169.72;;;-1.29;100.00
46724;BME280;32463;48.298;11.620;2023-02-14T03:41:21;98172.28;;;-1.29;100.00
46724;BME280;32463;48.298;11.620;2023-02-14T03:43:52;98172.31;;;-1.31;100.00
46724;BME280;32463;48.298;11.620;2023-02-14T03:46:24;98178.94;;;-1.25;100.00
46724;BME280;32463;48.298;11.620;2023-02-14T03:48:55;98178.72;;;-1.18;100.00
46724;BME280;32463;48.298;11.620;2023-02-14T03:51:25;98176.97;;;-1.16;100.00
46724;BME280;32463;48.298;11.620;2023-02-14T03:53:55;98178.13;;;-1.26;100.00
46724;BME280;32463;48.298;11.620;2023-02-14T03:59:16;98176.56;;;-1.31;100.00
46724;BME280;32463;48.298;11.620;2023-02-14T04:01:47;98177.66;;;-1.42;100.00
46724;BME280;32463;48.298;11.620;2023-02-14T04:04:18;98166.69;;;-1.44;100.00
46724;BME280;32463;48.298;11.620;2023-02-14T04:06:46;98166.47;;;-1.34;100.00
46724;BME280;32463;48.298;11.620;2023-02-14T04:09:12;98171.50;;;-1.33;100.00
46724;BME280;32463;48.298;11.620;2023-02-14T04:11:39;98158.06;;;-1.38;100.00
46724;BME280;32463;48.298;11.620;2023-02-14T04:14:06;98162.31;;;-1.39;100.00
46724;BME280;32463;48.298;11.620;2023-02-14T04:16:32;98171.63;;;-1.38;100.00
46724;BME280;32463;48.298;11.620;2023-02-14T04:19:19;98172.38;;;-1.34;100.00
46724;BME280;32463;48.298;11.620;2023-02-14T04:21:50;98175.97;;;-1.41;100.00
46724;BME280;32463;48.298;11.620;2023-02-14T04:24:17;98171.78;;;-1.44;100.00
46724;BME280;32463;48.298;11.620;2023-02-14T04:26:44;98165.75;;;-1.40;100.00
46724;BME280;32463;48.298;11.620;2023-02-14T04:29:39;98174.88;;;-1.32;100.00
46724;BME280;32463;48.298;11.620;2023-02-14T04:32:08;98171.41;;;-1.28;100.00
46724;BME280;32463;48.298;11.620;2023-02-14T04:34:35;98174.81;;;-1.29;100.00
46724;BME280;32463;48.298;11.620;2023-02-14T04:37:02;98173.28;;;-1.37;100.00
46724;BME280;32463;48.298;11.620;2023-02-14T04:39:29;98175.84;;;-1.37;100.00
46724;BME280;32463;48.298;11.620;2023-02-14T04:41:55;98168.38;;;-1.43;100.00
46724;BME280;32463;48.298;11.620;2023-02-14T04:44:22;98163.28;;;-1.43;100.00
46724;BME280;32463;48.298;11.620;2023-02-14T04:46:49;98159.78;;;-1.39;100.00
46724;BME280;32463;48.298;11.620;2023-02-14T04:49:16;98169.88;;;-1.36;100.00
46724;BME280;32463;48.298;11.620;2023-02-14T04:51:42;98156.38;;;-1.38;100.00
46724;BME280;32463;48.298;11.620;2023-02-14T04:54:09;98159.78;;;-1.39;100.00
46724;BME280;32463;48.298;11.620;2023-02-14T04:56:35;98156.38;;;-1.38;100.00
46724;BME280;32463;48.298;11.620;2023-02-14T04:59:02;98152.78;;;-1.30;100.00
46724;BME280;32463;48.298;11.620;2023-02-14T05:01:28;98152.72;;;-1.27;100.00
46724;BME280;32463;48.298;11.620;2023-02-14T05:03:55;98139.19;;;-1.29;100.00
46724;BME280;32463;48.298;11.620;2023-02-14T05:06:22;98145.88;;;-1.25;100.00
46724;BME280;32463;48.298;11.620;2023-02-14T05:08:48;98140.81;;;-1.27;100.00
46724;BME280;32463;48.298;11.620;2023-02-14T05:11:15;98135.84;;;-1.31;100.00
46724;BME280;32463;48.298;11.620;2023-02-14T05:13:41;98141.09;;;-1.38;100.00
46724;BME280;32463;48.298;11.620;2023-02-14T05:16:07;98148.16;;;-1.49;100.00
46724;BME280;32463;48.298;11.620;2023-02-14T05:18:34;98137.25;;;-1.52;100.00
46724;BME280;32463;48.298;11.620;2023-02-14T05:21:00;98143.28;;;-1.55;100.00
46724;BME280;32463;48.298;11.620;2023-02-14T05:23:27;98138.19;;;-1.55;100.00
46724;BME280;32463;48.298;11.620;2023-02-14T05:25:53;98127.03;;;-1.51;100.00
46724;BME280;32463;48.298;11.620;2023-02-14T05:28:20;98133.88;;;-1.53;100.00
46724;BME280;32463;48.298;11.620;2023-02-14T05:30:46;98133.78;;;-1.50;100.00
46724;BME280;32463;48.298;11.620;2023-02-14T05:33:13;98123.09;;;-1.61;100.00
46724;BME280;32463;48.298;11.620;2023-02-14T05:35:39;98126.41;;;-1.59;100.00
46724;BME280;32463;48.298;11.620;2023-02-14T05:38:06;98122.44;;;-1.69;100.00
46724;BME280;32463;48.298;11.620;2023-02-14T05:40:32;98136.59;;;-1.59;100.00
46724;BME280;32463;48.298;11.620;2023-02-14T05:42:59;98136.41;;;-1.53;100.00
46724;BME280;32463;48.298;11.620;2023-02-14T05:45:25;98132.06;;;-1.49;100.00
46724;BME280;32463;48.298;11.620;2023-02-14T05:47:51;98143.91;;;-1.48;100.00
46724;BME280;32463;48.298;11.620;2023-02-14T05:50:18;98137.03;;;-1.45;100.00
46724;BME280;32463;48.298;11.620;2023-02-14T05:52:44;98153.91;;;-1.41;100.00
46724;BME280;32463;48.298;11.620;2023-02-14T05:55:11;98148.00;;;-1.43;100.00
46724;BME280;32463;48.298;11.620;2023-02-14T05:57:37;98147.09;;;-1.40;100.00
46724;BME280;32463;48.298;11.620;2023-02-14T06:00:05;98153.09;;;-1.43;100.00
46724;BME280;32463;48.298;11.620;2023-02-14T06:02:31;98141.41;;;-1.50;100.00
46724;BME280;32463;48.298;11.620;2023-02-14T06:04:58;98147.28;;;-1.48;100.00
46724;BME280;32463;48.298;11.620;2023-02-14T06:07:24;98143.00;;;-1.46;100.00
46724;BME280;32463;48.298;11.620;2023-02-14T06:09:51;98156.53;;;-1.44;100.00
46724;BME280;32463;48.298;11.620;2023-02-14T06:12:18;98154.22;;;-1.53;100.00
46724;BME280;32463;48.298;11.620;2023-02-14T06:14:44;98156.94;;;-1.59;100.00
46724;BME280;32463;48.298;11.620;2023-02-14T06:17:11;98156.84;;;-1.56;100.00
46724;BME280;32463;48.298;11.620;2023-02-14T06:19:37;98158.53;;;-1.55;100.00
46724;BME280;32463;48.298;11.620;2023-02-14T06:22:04;98164.53;;;-1.57;100.00
46724;BME280;32463;48.298;11.620;2023-02-14T06:24:30;98162.09;;;-1.62;100.00
46724;BME280;32463;48.298;11.620;2023-02-14T06:26:58;98166.41;;;-1.65;100.00
46724;BME280;32463;48.298;11.620;2023-02-14T06:29:24;98160.50;;;-1.66;100.00
46724;BME280;32463;48.298;11.620;2023-02-14T06:31:51;98160.44;;;-1.63;100.00
46724;BME280;32463;48.298;11.620;2023-02-14T06:34:17;98158.69;;;-1.61;100.00
46724;BME280;32463;48.298;11.620;2023-02-14T06:36:44;98161.16;;;-1.58;100.00
46724;BME280;32463;48.298;11.620;2023-02-14T06:39:10;98165.50;;;-1.63;100.00
46724;BME280;32463;48.298;11.620;2023-02-14T06:41:37;98167.19;;;-1.62;100.00
46724;BME280;32463;48.298;11.620;2023-02-14T06:44:03;98167.19;;;-1.62;100.00
46724;BME280;32463;48.298;11.620;2023-02-14T06:46:30;98170.66;;;-1.66;100.00
46724;BME280;32463;48.298;11.620;2023-02-14T06:48:56;98170.75;;;-1.69;100.00
46724;BME280;32463;48.298;11.620;2023-02-14T06:51:24;98175.75;;;-1.66;100.00
46724;BME280;32463;48.298;11.620;2023-02-14T06:53:51;98175.59;;;-1.60;100.00
46724;BME280;32463;48.298;11.620;2023-02-14T06:56:17;98160.34;;;-1.60;100.00
46724;BME280;32463;48.298;11.620;2023-02-14T06:58:44;98157.56;;;-1.51;100.00
46724;BME280;32463;48.298;11.620;2023-02-14T07:01:10;98158.41;;;-1.52;100.00
46724;BME280;32463;48.298;11.620;2023-02-14T07:03:39;98163.44;;;-1.49;100.00
46724;BME280;32463;48.298;11.620;2023-02-14T07:06:05;98161.22;;;-1.61;100.00
46724;BME280;32463;48.298;11.620;2023-02-14T07:08:32;98160.34;;;-1.60;100.00
46724;BME280;32463;48.298;11.620;2023-02-14T07:10:58;98148.66;;;-1.67;100.00
46724;BME280;32463;48.298;11.620;2023-02-14T07:13:25;98159.63;;;-1.65;100.00
46724;BME280;32463;48.298;11.620;2023-02-14T07:15:51;98160.34;;;-1.60;100.00
46724;BME280;32463;48.298;11.620;2023-02-14T07:18:18;98163.75;;;-1.61;100.00
46724;BME280;32463;48.298;11.620;2023-02-14T07:20:44;98168.84;;;-1.61;100.00
46724;BME280;32463;48.298;11.620;2023-02-14T07:23:11;98162.16;;;-1.65;100.00
46724;BME280;32463;48.298;11.620;2023-02-14T07:25:37;98170.44;;;-1.57;100.00
46724;BME280;32463;48.298;11.620;2023-02-14T07:28:04;98168.94;;;-1.64;100.00
46724;BME280;32463;48.298;11.620;2023-02-14T07:30:31;98155.22;;;-1.58;100.00
46724;BME280;32463;48.298;11.620;2023-02-14T07:32:57;98157.44;;;-1.46;100.00
46724;BME280;32463;48.298;11.620;2023-02-14T07:35:24;98156.53;;;-1.44;100.00
46724;BME280;32463;48.298;11.620;2023-02-14T07:37:51;98153.66;;;-1.31;100.00
46724;BME280;32463;48.298;11.620;2023-02-14T07:40:18;98140.94;;;-1.31;100.00
46724;BME280;32463;48.298;11.620;2023-02-14T07:42:52;98141.97;;;-1.39;100.00
46724;BME280;32463;48.298;11.620;2023-02-14T07:45:20;98145.66;;;-1.50;100.00
46724;BME280;32463;48.298;11.620;2023-02-14T07:47:50;98132.00;;;-1.46;100.00
46724;BME280;32463;48.298;11.620;2023-02-14T07:50:17;98136.97;;;-1.42;100.00
46724;BME280;32463;48.298;11.620;2023-02-14T07:52:44;98134.50;;;-1.45;100.00
46724;BME280;32463;48.298;11.620;2023-02-14T07:55:11;98133.59;;;-1.42;100.00
46724;BME280;32463;48.298;11.620;2023-02-14T07:57:38;98135.22;;;-1.40;100.00
46724;BME280;32463;48.298;11.620;2023-02-14T08:00:05;98129.84;;;-1.29;100.00
46724;BME280;32463;48.298;11.620;2023-02-14T08:02:32;98132.16;;;-1.21;100.00
46724;BME280;32463;48.298;11.620;2023-02-14T08:04:59;98127.66;;;-1.12;100.00
46724;BME280;32463;48.298;11.620;2023-02-14T08:07:26;98133.34;;;-1.02;100.00
46724;BME280;32463;48.298;11.620;2023-02-14T08:09:52;98133.25;;;-0.99;100.00
46724;BME280;32463;48.298;11.620;2023-02-14T08:12:19;98130.47;;;-0.91;100.00
46724;BME280;32463;48.298;11.620;2023-02-14T08:15:03;98126.00;;;-1.13;100.00
46724;BME280;32463;48.298;11.620;2023-02-14T08:17:43;98119.81;;;-1.04;100.00
46724;BME280;32463;48.298;11.620;2023-02-14T08:20:10;98119.72;;;-1.01;100.00
46724;BME280;32463;48.298;11.620;2023-02-14T08:22:37;98121.13;;;-0.91;100.00
46724;BME280;32463;48.298;11.620;2023-02-14T08:25:04;98119.34;;;-0.89;100.00
46724;BME280;32463;48.298;11.620;2023-02-14T08:27:30;98119.31;;;-0.87;100.00
46724;BME280;32463;48.298;11.620;2023-02-14T08:29:57;98121.28;;;-0.95;100.00
46724;BME280;32463;48.298;11.620;2023-02-14T08:32:26;98126.13;;;-0.88;100.00
46724;BME280;32463;48.298;11.620;2023-02-14T08:34:52;98127.88;;;-0.90;100.00
46724;BME280;32463;48.298;11.620;2023-02-14T08:37:19;98126.75;;;-0.80;100.00
46724;BME280;32463;48.298;11.620;2023-02-14T08:39:45;98123.66;;;-0.91;100.00
46724;BME280;32463;48.298;11.620;2023-02-14T08:42:12;98125.66;;;-1.00;100.00
46724;BME280;32463;48.298;11.620;2023-02-14T08:44:38;98122.69;;;-0.87;100.00
46724;BME280;32463;48.298;11.620;2023-02-14T08:47:04;98124.44;;;-0.89;100.00
46724;BME280;32463;48.298;11.620;2023-02-14T08:49:31;98130.34;;;-0.87;100.00
46724;BME280;32463;48.298;11.620;2023-02-14T08:51:57;98121.44;;;-0.72;100.00
46724;BME280;32463;48.298;11.620;2023-02-14T08:54:24;98131.53;;;-0.69;100.00
46724;BME280;32463;48.298;11.620;2023-02-14T08:56:50;98130.41;;;-0.60;100.00
46724;BME280;32463;48.298;11.620;2023-02-14T08:59:17;98137.16;;;-0.59;100.00
46724;BME280;32463;48.298;11.620;2023-02-14T09:01:43;98135.88;;;-0.45;100.00
46724;BME280;32463;48.298;11.620;2023-02-14T09:04:10;98142.06;;;-0.81;100.00
46724;BME280;32463;48.298;11.620;2023-02-14T09:06:37;98142.47;;;-0.65;100.00
46724;BME280;32463;48.298;11.620;2023-02-14T09:09:05;98145.88;;;-0.66;100.00
46724;BME280;32463;48.298;11.620;2023-02-14T09:11:32;98140.97;;;-0.73;100.00
46724;BME280;32463;48.298;11.620;2023-02-14T09:13:59;98139.81;;;-0.62;100.00
46724;BME280;32463;48.298;11.620;2023-02-14T09:16:25;98137.69;;;-0.48;100.00
46724;BME280;32463;48.298;11.620;2023-02-14T09:18:52;98140.97;;;-0.45;100.00
46724;BME280;32463;48.298;11.620;2023-02-14T09:21:24;98144.13;;;-0.37;100.00
46724;BME280;32463;48.298;11.620;2023-02-14T09:23:51;98137.59;;;-0.19;100.00
46724;BME280;32463;48.298;11.620;2023-02-14T09:26:19;98139.41;;;0.04;100.00
46724;BME280;32463;48.298;11.620;2023-02-14T09:28:46;98140.00;;;0.12;100.00
46724;BME280;32463;48.298;11.620;2023-02-14T09:31:14;98138.22;;;-0.11;100.00
46724;BME280;32463;48.298;11.620;2023-02-14T09:33:42;98147.53;;;-0.10;100.00
46724;BME280;32463;48.298;11.620;2023-02-14T09:36:15;98136.91;;;0.03;100.00
46724;BME280;32463;48.298;11.620;2023-02-14T09:38:41;98132.50;;;-0.19;100.00
46724;BME280;32463;48.298;11.620;2023-02-14T09:41:11;98138.63;;;-0.24;100.00
46724;BME280;32463;48.298;11.620;2023-02-14T09:43:49;98134.09;;;-0.15;100.00
46724;BME280;32463;48.298;11.620;2023-02-14T09:46:17;98134.50;;;-0.01;100.00
46724;BME280;32463;48.298;11.620;2023-02-14T09:48:46;98130.28;;;-0.02;100.00
46724;BME280;32463;48.298;11.620;2023-02-14T09:51:18;98128.19;;;-0.17;100.00
46724;BME280;32463;48.298;11.620;2023-02-14T09:54:10;98128.38;;;0.04;100.00
46724;BME280;32463;48.298;11.620;2023-02-14T09:56:49;98131.47;;;0.38;100.00
46724;BME280;32463;48.298;11.620;2023-02-14T09:59:29;98127.38;;;0.59;100.00
46724;BME280;32463;48.298;11.620;2023-02-14T10:04:57;98132.34;;;0.87;100.00
46724;BME280;32463;48.298;11.620;2023-02-14T10:10:30;98120.56;;;1.06;100.00
46724;BME280;32463;48.298;11.620;2023-02-14T10:13:26;98119.47;;;1.13;100.00
46724;BME280;32463;48.298;11.620;2023-02-14T10:16:08;98114.59;;;1.29;100.00
46724;BME280;32463;48.298;11.620;2023-02-14T10:18:45;98115.41;;;1.08;100.00
46724;BME280;32463;48.298;11.620;2023-02-14T10:25:21;98118.34;;;0.97;100.00
46724;BME280;32463;48.298;11.620;2023-02-14T10:27:45;98111.88;;;1.33;100.00
46724;BME280;32463;48.298;11.620;2023-02-14T10:30:22;98123.22;;;1.03;100.00
46724;BME280;32463;48.298;11.620;2023-02-14T10:35:32;98106.13;;;1.05;100.00
46724;BME280;32463;48.298;11.620;2023-02-14T10:41:00;98099.41;;;1.48;100.00
46724;BME280;32463;48.298;11.620;2023-02-14T10:43:32;98093.81;;;1.60;100.00
46724;BME280;32463;48.298;11.620;2023-02-14T10:52:25;98088.25;;;2.13;100.00
46724;BME280;32463;48.298;11.620;2023-02-14T10:55:04;98084.88;;;2.32;100.00
46724;BME280;32463;48.298;11.620;2023-02-14T10:57:37;98088.88;;;1.97;100.00
46724;BME280;32463;48.298;11.620;2023-02-14T11:00:28;98086.00;;;2.25;100.00
46724;BME280;32463;48.298;11.620;2023-02-14T11:02:57;98070.19;;;2.56;100.00
46724;BME280;32463;48.298;11.620;2023-02-14T11:05:31;98064.16;;;2.57;100.00
46724;BME280;32463;48.298;11.620;2023-02-14T11:07:59;98070.09;;;2.39;100.00
46724;BME280;32463;48.298;11.620;2023-02-14T11:10:29;98063.09;;;2.22;100.00
46724;BME280;32463;48.298;11.620;2023-02-14T11:12:57;98070.84;;;2.21;100.00
46724;BME280;32463;48.298;11.620;2023-02-14T11:15:27;98065.72;;;2.21;100.00
46724;BME280;32463;48.298;11.620;2023-02-14T11:18:18;98062.69;;;2.13;100.00
46724;BME280;32463;48.298;11.620;2023-02-14T11:23:31;98046.34;;;1.95;100.00
46724;BME280;32463;48.298;11.620;2023-02-14T11:25:59;98048.72;;;1.79;100.00
46724;BME280;32463;48.298;11.620;2023-02-14T11:28:26;98049.75;;;2.36;100.00
46724;BME280;32463;48.298;11.620;2023-02-14T11:30:53;98043.09;;;2.32;100.00
46724;BME280;32463;48.298;11.620;2023-02-14T11:33:33;98035.34;;;2.33;100.00
46724;BME280;32463;48.298;11.620;2023-02-14T11:36:04;98033.69;;;2.51;100.00
46724;BME280;32463;48.298;11.620;2023-02-14T11:38:35;98038.13;;;2.48;100.00
46724;BME280;32463;48.298;11.620;2023-02-14T11:41:07;98023.06;;;2.60;100.00
46724;BME280;32463;48.298;11.620;2023-02-14T11:46:13;98023.06;;;2.60;100.00
46724;BME280;32463;48.298;11.620;2023-02-14T11:51:36;98020.38;;;2.63;100.00
46724;BME280;32463;48.298;11.620;2023-02-14T11:54:05;98018.06;;;2.57;100.00
46724;BME280;32463;48.298;11.620;2023-02-14T11:56:47;98010.03;;;2.46;100.00
46724;BME280;32463;48.298;11.620;2023-02-14T11:59:50;98016.06;;;2.06;100.00
46724;BME280;32463;48.298;11.620;2023-02-14T12:02:36;98011.22;;;2.39;100.00
46724;BME280;32463;48.298;11.620;2023-02-14T12:05:14;98006.81;;;2.22;100.00
46724;BME280;32463;48.298;11.620;2023-02-14T12:07:44;97995.25;;;2.53;100.00
46724;BME280;32463;48.298;11.620;2023-02-14T12:15:34;97985.09;;;3.06;100.00
46724;BME280;32463;48.298;11.620;2023-02-14T12:20:44;97985.47;;;3.34;100.00
46724;BME280;32463;48.298;11.620;2023-02-14T12:25:55;97971.00;;;3.85;100.00
46724;BME280;32463;48.298;11.620;2023-02-14T12:28:30;97973.56;;;3.68;100.00
46724;BME280;32463;48.298;11.620;2023-02-14T12:31:10;97978.00;;;3.30;100.00
46724;BME280;32463;48.298;11.620;2023-02-14T12:33:37;97974.47;;;3.50;100.00
46724;BME280;32463;48.298;11.620;2023-02-14T12:36:14;97968.81;;;3.78;100.00
46724;BME280;32463;48.298;11.620;2023-02-14T12:39:01;97964.66;;;3.75;100.00
46724;BME280;32463;48.298;11.620;2023-02-14T12:44:23;97969.34;;;3.50;100.00
46724;BME280;32463;48.298;11.620;2023-02-14T12:49:34;97970.19;;;3.14;100.00
46724;BME280;32463;48.298;11.620;2023-02-14T12:52:26;97961.25;;;3.23;100.00
46724;BME280;32463;48.298;11.620;2023-02-14T12:57:56;97956.69;;;3.11;100.00
46724;BME280;32463;48.298;11.620;2023-02-14T13:01:25;97953.16;;;3.13;100.00
46724;BME280;32463;48.298;11.620;2023-02-14T13:06:45;97946.22;;;2.79;100.00
46724;BME280;32463;48.298;11.620;2023-02-14T13:09:36;97947.66;;;2.67;100.00
46724;BME280;32463;48.298;11.620;2023-02-14T13:12:33;97941.00;;;2.63;100.00
46724;BME280;32463;48.298;11.620;2023-02-14T13:17:49;97942.88;;;2.41;100.00
46724;BME280;32463;48.298;11.620;2023-02-14T13:23:19;97930.63;;;2.29;100.00
46724;BME280;32463;48.298;11.620;2023-02-14T13:25:53;97930.75;;;2.45;100.00
46724;BME280;32463;48.298;11.620;2023-02-14T13:28:21;97925.44;;;2.49;100.00
46724;BME280;32463;48.298;11.620;2023-02-14T13:30:48;97927.44;;;2.24;100.00
46724;BME280;32463;48.298;11.620;2023-02-14T13:33:29;97929.38;;;2.56;100.00
46724;BME280;32463;48.298;11.620;2023-02-14T13:36:01;97924.41;;;2.53;100.00
46724;BME280;32463;48.298;11.620;2023-02-14T13:38:29;97934.69;;;2.14;100.00
46724;BME280;32463;48.298;11.620;2023-02-14T13:40:58;97931.72;;;2.05;100.00
46724;BME280;32463;48.298;11.620;2023-02-14T13:43:49;97930.25;;;1.99;100.00
46724;BME280;32463;48.298;11.620;2023-02-14T13:46:21;97934.44;;;1.81;100.00
46724;BME280;32463;48.298;11.620;2023-02-14T13:50:17;97930.88;;;2.04;100.00
46724;BME280;32463;48.298;11.620;2023-02-14T13:55:18;97919.56;;;2.10;100.00
46724;BME280;32463;48.298;11.620;2023-02-14T13:58:02;97918.38;;;2.17;100.00
46724;BME280;32463;48.298;11.620;2023-02-14T14:00:40;97912.91;;;2.06;100.00
46724;BME280;32463;48.298;11.620;2023-02-14T14:03:14;97909.31;;;2.28;100.00
46724;BME280;32463;48.298;11.620;2023-02-14T14:06:07;97912.34;;;1.99;100.00
46724;BME280;32463;48.298;11.620;2023-02-14T14:08:38;97912.00;;;1.67;100.00
46724;BME280;32463;48.298;11.620;2023-02-14T14:16:34;97905.16;;;1.68;100.00
46724;BME280;32463;48.298;11.620;2023-02-14T14:19:33;97902.75;;;1.65;100.00
46724;BME280;32463;48.298;11.620;2023-02-14T14:27:18;97900.50;;;1.57;100.00
46724;BME280;32463;48.298;11.620;2023-02-14T14:29:48;97897.53;;;1.87;100.00
46724;BME280;32463;48.298;11.620;2023-02-14T14:32:32;97892.66;;;1.42;100.00
46724;BME280;32463;48.298;11.620;2023-02-14T14:37:49;97890.84;;;1.23;100.00
46724;BME280;32463;48.298;11.620;2023-02-14T14:42:49;97885.19;;;1.37;100.00
46724;BME280;32463;48.298;11.620;2023-02-14T14:45:21;97898.09;;;0.92;100.00
46724;BME280;32463;48.298;11.620;2023-02-14T14:47:51;97888.03;;;1.09;100.00
46724;BME280;32463;48.298;11.620;2023-02-14T14:50:24;97884.34;;;1.16;100.00
46724;BME280;32463;48.298;11.620;2023-02-14T14:53:02;97878.09;;;1.44;100.00
46724;BME280;32463;48.298;11.620;2023-02-14T14:55:33;97875.09;;;1.34;100.00
46724;BME280;32463;48.298;11.620;2023-02-14T14:58:06;97876.94;;;1.30;100.00